createdAt,value
2022-11-12T00:00:16.936Z,99.99
2022-11-12T00:01:16.770Z,99.99
2022-11-12T00:02:16.763Z,99.99
2022-11-12T00:03:16.590Z,99.99
2022-11-12T00:04:16.506Z,99.99
2022-11-12T00:05:16.423Z,99.99
2022-11-12T00:06:16.337Z,99.99
2022-11-12T00:07:16.305Z,99.99
2022-11-12T00:08:16.174Z,99.99
2022-11-12T00:09:16.088Z,99.99
2022-11-12T00:10:16.011Z,99.99
2022-11-12T00:11:15.922Z,99.99
2022-11-12T00:12:15.839Z,99.99
2022-11-12T00:13:15.761Z,99.99
2022-11-12T00:14:15.670Z,99.99
2022-11-12T00:15:15.587Z,99.99
2022-11-12T00:16:15.607Z,99.99
2022-11-12T00:17:15.419Z,99.99
2022-11-12T00:18:15.341Z,99.99
2022-11-12T00:19:15.253Z,99.99
2022-11-12T00:20:15.173Z,99.99
2022-11-12T00:21:15.088Z,99.99
2022-11-12T00:22:15.007Z,99.99
2022-11-12T00:23:14.920Z,99.99
2022-11-12T00:24:14.841Z,99.99
2022-11-12T00:25:14.759Z,99.99
2022-11-12T00:26:14.670Z,99.99
2022-11-12T00:27:14.588Z,99.99
2022-11-12T00:28:14.516Z,99.99
2022-11-12T00:29:14.423Z,99.99
2022-11-12T00:30:14.344Z,99.99
2022-11-12T00:31:14.257Z,99.99
2022-11-12T00:32:14.266Z,99.99
2022-11-12T00:33:14.096Z,99.99
2022-11-12T00:34:14.004Z,99.99
2022-11-12T00:35:14.355Z,99.99
2022-11-12T00:36:13.838Z,99.99
2022-11-12T00:37:13.752Z,99.99
2022-11-12T00:38:13.668Z,99.99
2022-11-12T00:39:13.587Z,99.99
2022-11-12T00:40:13.503Z,99.99
2022-11-12T00:41:13.422Z,99.99
2022-11-12T00:42:13.339Z,99.99
2022-11-12T00:43:13.254Z,99.99
2022-11-12T00:44:13.169Z,99.99
2022-11-12T00:45:13.116Z,99.99
2022-11-12T00:46:13.002Z,99.99
2022-11-12T00:47:12.917Z,99.99
2022-11-12T00:48:12.939Z,99.99
2022-11-12T00:49:12.757Z,99.99
2022-11-12T00:50:12.668Z,99.99
2022-11-12T00:51:12.590Z,99.99
2022-11-12T00:52:12.503Z,99.99
2022-11-12T00:53:12.420Z,99.99
2022-11-12T00:54:12.335Z,99.99
2022-11-12T00:55:12.253Z,99.99
2022-11-12T00:56:12.164Z,99.99
2022-11-12T00:57:12.083Z,99.99
2022-11-12T00:58:12.002Z,99.99
2022-11-12T00:59:11.916Z,99.99
2022-11-12T01:00:11.833Z,99.99
2022-11-12T01:01:11.814Z,99.99
2022-11-12T01:02:11.667Z,99.99
2022-11-12T01:03:11.584Z,99.99
2022-11-12T01:04:11.651Z,99.99
2022-11-12T01:05:11.417Z,99.99
2022-11-12T01:06:11.334Z,99.99
2022-11-12T01:07:11.396Z,99.99
2022-11-12T01:08:11.163Z,99.99
2022-11-12T01:09:11.081Z,99.99
2022-11-12T01:10:10.998Z,99.99
2022-11-12T01:11:10.917Z,99.99
2022-11-12T01:12:10.833Z,99.99
2022-11-12T01:13:10.751Z,99.99
2022-11-12T01:14:10.661Z,99.99
2022-11-12T01:15:10.581Z,99.99
2022-11-12T01:16:10.496Z,99.99
2022-11-12T01:17:10.412Z,99.99
2022-11-12T01:18:10.329Z,99.99
2022-11-12T01:19:10.247Z,99.99
2022-11-12T01:20:10.258Z,99.99
2022-11-12T01:21:10.077Z,99.99
2022-11-12T01:22:09.995Z,99.99
2022-11-12T01:23:09.913Z,99.99
2022-11-12T01:24:09.827Z,99.99
2022-11-12T01:25:09.751Z,99.99
2022-11-12T01:26:09.662Z,99.99
2022-11-12T01:27:09.574Z,99.99
2022-11-12T01:28:09.491Z,99.99
2022-11-12T01:29:09.413Z,99.99
2022-11-12T01:30:09.326Z,99.99
2022-11-12T01:31:09.249Z,99.99
2022-11-12T01:32:09.163Z,99.99
2022-11-12T01:33:09.073Z,99.99
2022-11-12T01:34:08.992Z,99.99
2022-11-12T01:35:08.906Z,99.99
2022-11-12T01:36:08.921Z,99.99
2022-11-12T01:37:08.741Z,99.99
2022-11-12T01:38:08.657Z,99.99
2022-11-12T01:39:08.575Z,99.99
2022-11-12T01:40:08.485Z,99.99
2022-11-12T01:41:08.407Z,99.99
2022-11-12T01:42:08.320Z,99.99
2022-11-12T01:43:08.237Z,99.99
2022-11-12T01:44:08.153Z,99.99
2022-11-12T01:45:08.095Z,99.99
2022-11-12T01:46:07.987Z,99.99
2022-11-12T01:47:07.899Z,99.99
2022-11-12T01:48:07.815Z,99.99
2022-11-12T01:49:07.740Z,99.99
2022-11-12T01:50:07.653Z,99.99
2022-11-12T01:51:07.570Z,99.99
2022-11-12T01:52:07.583Z,99.99
2022-11-12T01:53:07.399Z,99.99
2022-11-12T01:54:07.316Z,99.99
2022-11-12T01:55:07.230Z,99.99
2022-11-12T01:56:07.150Z,99.99
2022-11-12T01:57:07.063Z,99.99
2022-11-12T01:58:06.978Z,99.99
2022-11-12T01:59:06.895Z,99.99
2022-11-12T02:00:06.816Z,99.99
2022-11-12T02:01:06.774Z,99.99
2022-11-12T02:02:06.642Z,99.99
2022-11-12T02:03:06.561Z,99.99
2022-11-12T02:04:06.474Z,99.99
2022-11-12T02:05:06.394Z,99.99
2022-11-12T02:06:06.307Z,99.99
2022-11-12T02:07:06.279Z,99.99
2022-11-12T02:08:06.239Z,99.99
2022-11-12T02:09:06.062Z,99.99
2022-11-12T02:10:05.973Z,99.99
2022-11-12T02:11:05.888Z,99.99
2022-11-12T02:12:05.804Z,99.99
2022-11-12T02:13:05.734Z,99.99
2022-11-12T02:14:05.641Z,99.99
2022-11-12T02:15:05.558Z,99.99
2022-11-12T02:16:05.472Z,99.99
2022-11-12T02:17:05.391Z,99.99
2022-11-12T02:18:05.307Z,99.99
2022-11-12T02:19:05.223Z,99.99
2022-11-12T02:20:05.139Z,99.99
2022-11-12T02:21:05.055Z,99.99
2022-11-12T02:22:04.972Z,99.99
2022-11-12T02:23:04.896Z,99.99
2022-11-12T02:24:04.900Z,99.99
2022-11-12T02:25:04.720Z,99.99
2022-11-12T02:26:04.632Z,99.99
2022-11-12T02:27:04.551Z,99.99
2022-11-12T02:28:04.468Z,99.99
2022-11-12T02:29:04.383Z,99.99
2022-11-12T02:30:04.306Z,99.99
2022-11-12T02:31:04.216Z,99.99
2022-11-12T02:32:04.130Z,99.99
2022-11-12T02:33:04.053Z,99.99
2022-11-12T02:34:03.967Z,99.99
2022-11-12T02:35:03.896Z,99.99
2022-11-12T02:36:03.794Z,99.99
2022-11-12T02:37:03.716Z,99.99
2022-11-12T02:38:03.630Z,99.99
2022-11-12T02:39:03.544Z,99.99
2022-11-12T02:40:03.563Z,99.99
2022-11-12T02:41:03.383Z,99.99
2022-11-12T02:42:03.292Z,99.99
2022-11-12T02:43:03.212Z,99.99
2022-11-12T02:44:03.127Z,99.99
2022-11-12T02:45:03.041Z,99.99
2022-11-12T02:46:02.962Z,99.99
2022-11-12T02:47:02.880Z,99.99
2022-11-12T02:48:02.795Z,99.99
2022-11-12T02:49:02.708Z,99.99
2022-11-12T02:50:02.650Z,99.99
2022-11-12T02:51:02.540Z,99.99
2022-11-12T02:52:02.457Z,99.99
2022-11-12T02:53:02.376Z,99.99
2022-11-12T02:54:02.286Z,99.99
2022-11-12T02:55:02.210Z,99.99
2022-11-12T02:56:02.216Z,99.99
2022-11-12T02:57:02.039Z,99.99
2022-11-12T02:58:01.956Z,99.99
2022-11-12T02:59:01.873Z,99.99
2022-11-12T03:00:01.788Z,99.99
2022-11-12T03:01:01.729Z,99.99
2022-11-12T03:02:01.623Z,99.99
2022-11-12T03:03:01.541Z,99.99
2022-11-12T03:04:01.454Z,99.99
2022-11-12T03:05:01.370Z,99.99
2022-11-12T03:06:01.287Z,99.99
2022-11-12T03:07:01.237Z,99.99
2022-11-12T03:08:01.136Z,99.99
2022-11-12T03:09:01.032Z,99.99
2022-11-12T03:10:00.949Z,99.99
2022-11-12T03:11:00.865Z,99.99
2022-11-12T03:12:00.875Z,99.99
2022-11-12T03:13:00.705Z,99.99
2022-11-12T03:14:00.616Z,99.99
2022-11-12T03:15:00.529Z,99.99
2022-11-12T03:16:00.446Z,99.99
2022-11-12T03:17:00.362Z,99.99
2022-11-12T03:18:00.280Z,99.99
2022-11-12T03:19:00.201Z,99.99
2022-11-12T03:20:00.110Z,99.99
2022-11-12T03:21:00.026Z,99.99
2022-11-12T03:21:59.944Z,99.99
2022-11-12T03:22:59.860Z,99.99
2022-11-12T03:23:59.779Z,99.99
2022-11-12T03:24:59.692Z,99.99
2022-11-12T03:25:59.610Z,99.99
2022-11-12T03:26:59.529Z,99.99
2022-11-12T03:27:59.536Z,99.99
2022-11-12T03:28:59.361Z,99.99
2022-11-12T03:29:59.274Z,99.99
2022-11-12T03:30:59.193Z,99.99
2022-11-12T03:31:59.106Z,99.99
2022-11-12T03:32:59.030Z,99.99
2022-11-12T03:33:58.939Z,99.99
2022-11-12T03:34:58.852Z,99.99
2022-11-12T03:35:58.770Z,99.99
2022-11-12T03:36:58.696Z,99.99
2022-11-12T03:37:58.605Z,99.99
2022-11-12T03:38:58.519Z,99.99
2022-11-12T03:39:58.434Z,99.99
2022-11-12T03:40:58.351Z,99.99
2022-11-12T03:41:58.270Z,99.99
2022-11-12T03:42:58.185Z,99.99
2022-11-12T03:43:58.194Z,99.99
2022-11-12T03:44:58.020Z,99.99
2022-11-12T03:45:57.934Z,99.99
2022-11-12T03:46:57.850Z,99.99
2022-11-12T03:47:57.779Z,99.99
2022-11-12T03:48:57.686Z,99.99
2022-11-12T03:49:57.595Z,99.99
2022-11-12T03:50:57.520Z,99.99
2022-11-12T03:51:57.431Z,99.99
2022-11-12T03:52:57.350Z,99.99
2022-11-12T03:53:57.260Z,99.99
2022-11-12T03:54:57.177Z,99.99
2022-11-12T03:55:57.092Z,99.99
2022-11-12T03:56:57.009Z,99.99
2022-11-12T03:57:56.927Z,99.99
2022-11-12T03:58:56.839Z,99.99
2022-11-12T03:59:56.851Z,99.99
2022-11-12T04:00:56.729Z,99.99
2022-11-12T04:01:56.586Z,99.99
2022-11-12T04:02:56.502Z,99.99
2022-11-12T04:03:56.418Z,99.99
2022-11-12T04:04:56.337Z,99.99
2022-11-12T04:05:56.250Z,99.99
2022-11-12T04:06:56.223Z,99.99
2022-11-12T04:07:56.082Z,99.99
2022-11-12T04:08:56.000Z,99.99
2022-11-12T04:09:55.919Z,99.99
2022-11-12T04:10:55.833Z,99.99
2022-11-12T04:11:55.751Z,99.99
2022-11-12T04:12:55.666Z,99.99
2022-11-12T04:13:55.585Z,99.99
2022-11-12T04:14:55.497Z,99.99
2022-11-12T04:15:55.505Z,99.99
2022-11-12T04:16:55.327Z,99.99
2022-11-12T04:17:55.244Z,99.99
2022-11-12T04:18:55.163Z,99.99
2022-11-12T04:19:55.083Z,99.99
2022-11-12T04:20:54.993Z,99.99
2022-11-12T04:21:55.078Z,99.99
2022-11-12T04:22:54.822Z,99.99
2022-11-12T04:23:54.739Z,99.99
2022-11-12T04:24:54.655Z,99.99
2022-11-12T04:25:54.574Z,99.99
2022-11-12T04:26:54.490Z,99.99
2022-11-12T04:27:54.401Z,99.99
2022-11-12T04:28:54.345Z,99.99
2022-11-12T04:29:54.234Z,99.99
2022-11-12T04:30:54.149Z,99.99
2022-11-12T04:31:54.164Z,99.99
2022-11-12T04:32:53.984Z,99.99
2022-11-12T04:33:53.897Z,99.99
2022-11-12T04:34:54.094Z,99.99
2022-11-12T04:35:53.735Z,99.99
2022-11-12T04:36:53.645Z,99.99
2022-11-12T04:37:53.563Z,99.99
2022-11-12T04:38:53.480Z,99.99
2022-11-12T04:39:53.390Z,99.99
2022-11-12T04:40:53.308Z,99.99
2022-11-12T04:41:53.226Z,99.99
2022-11-12T04:42:53.141Z,99.99
2022-11-12T04:43:53.053Z,99.99
2022-11-12T04:44:52.970Z,99.99
2022-11-12T04:45:52.889Z,99.99
2022-11-12T04:46:52.801Z,99.99
2022-11-12T04:47:52.813Z,99.99
2022-11-12T04:48:52.632Z,99.99
2022-11-12T04:49:52.551Z,99.99
2022-11-12T04:50:52.471Z,99.99
2022-11-12T04:51:52.382Z,99.99
2022-11-12T04:52:52.297Z,99.99
2022-11-12T04:53:52.219Z,99.99
2022-11-12T04:54:52.130Z,99.99
2022-11-12T04:55:52.044Z,99.99
2022-11-12T04:56:51.959Z,99.99
2022-11-12T04:57:56.085Z,99.99
2022-11-12T04:58:51.788Z,99.99
2022-11-12T04:59:51.706Z,99.99
2022-11-12T05:00:51.682Z,99.99
2022-11-12T05:01:51.540Z,99.99
2022-11-12T05:02:51.453Z,99.99
2022-11-12T05:03:51.468Z,99.99
2022-11-12T05:04:51.283Z,99.99
2022-11-12T05:05:51.203Z,99.99
2022-11-12T05:06:51.179Z,99.99
2022-11-12T05:07:51.031Z,99.99
2022-11-12T05:08:50.946Z,99.99
2022-11-12T05:09:50.865Z,99.99
2022-11-12T05:10:50.777Z,99.99
2022-11-12T05:11:50.699Z,99.99
2022-11-12T05:12:50.610Z,99.99
2022-11-12T05:13:50.526Z,99.99
2022-11-12T05:14:50.439Z,99.99
2022-11-12T05:15:50.360Z,99.99
2022-11-12T05:16:50.276Z,99.99
2022-11-12T05:17:50.187Z,99.99
2022-11-12T05:18:50.102Z,99.99
2022-11-12T05:19:50.119Z,99.99
2022-11-12T05:20:49.946Z,99.99
2022-11-12T05:21:49.856Z,99.99
2022-11-12T05:23:05.003Z,99.99
2022-11-12T05:23:49.680Z,99.99
2022-11-12T05:24:49.597Z,99.99
2022-11-12T05:25:49.519Z,99.99
2022-11-12T05:26:49.428Z,99.99
2022-11-12T05:27:49.341Z,99.99
2022-11-12T05:28:49.260Z,99.99
2022-11-12T05:29:49.178Z,99.99
2022-11-12T05:30:49.091Z,99.99
2022-11-12T05:31:49.006Z,99.99
2022-11-12T05:32:48.921Z,99.99
2022-11-12T05:33:48.837Z,99.99
2022-11-12T05:34:48.751Z,99.99
2022-11-12T05:35:48.781Z,99.99
2022-11-12T05:36:48.581Z,99.99
2022-11-12T05:37:48.500Z,99.99
2022-11-12T05:38:48.415Z,99.99
2022-11-12T05:39:48.330Z,99.99
2022-11-12T05:40:48.243Z,99.99
2022-11-12T05:42:11.224Z,99.99
2022-11-12T05:42:48.074Z,99.99
2022-11-12T05:43:47.989Z,99.99
2022-11-12T05:44:47.905Z,99.99
2022-11-12T05:45:47.822Z,99.99
2022-11-12T05:46:47.734Z,99.99
2022-11-12T05:47:47.654Z,99.99
2022-11-12T05:48:47.565Z,99.99
2022-11-12T05:49:47.483Z,99.99
2022-11-12T05:51:11.518Z,99.99
2022-11-12T05:51:47.407Z,99.99
2022-11-12T05:52:47.227Z,99.99
2022-11-12T05:53:47.146Z,99.99
2022-11-12T05:54:47.057Z,99.99
2022-11-12T05:55:46.979Z,99.99
2022-11-12T05:56:46.895Z,99.99
2022-11-12T05:57:46.809Z,99.99
2022-11-12T05:58:46.719Z,99.99
2022-11-12T05:59:46.637Z,99.99
2022-11-12T06:00:46.556Z,99.99
2022-11-12T06:01:46.467Z,99.99
2022-11-12T06:02:46.431Z,99.99
2022-11-12T06:03:46.300Z,99.99
2022-11-12T06:04:46.212Z,99.99
2022-11-12T06:05:46.127Z,99.99
2022-11-12T06:06:46.155Z,99.99
2022-11-12T06:07:46.060Z,99.99
2022-11-12T06:08:45.877Z,99.99
2022-11-12T06:09:45.795Z,99.99
2022-11-12T06:10:45.704Z,99.99
2022-11-12T06:11:45.622Z,99.99
2022-11-12T06:12:45.533Z,99.99
2022-11-12T06:13:45.451Z,99.99
2022-11-12T06:14:45.368Z,99.99
2022-11-12T06:15:45.281Z,99.99
2022-11-12T06:16:45.198Z,99.99
2022-11-12T06:17:45.120Z,99.99
2022-11-12T06:18:45.032Z,99.99
2022-11-12T06:19:44.947Z,99.99
2022-11-12T06:20:44.855Z,99.99
2022-11-12T06:21:44.778Z,99.99
2022-11-12T06:22:44.691Z,99.99
2022-11-12T06:23:44.704Z,99.99
2022-11-12T06:24:44.517Z,99.99
2022-11-12T06:25:44.440Z,99.99
2022-11-12T06:26:44.351Z,99.99
2022-11-12T06:27:44.279Z,99.99
2022-11-12T06:28:44.215Z,99.99
2022-11-12T06:29:44.094Z,99.99
2022-11-12T06:30:44.009Z,99.99
2022-11-12T06:31:43.929Z,99.99
2022-11-12T06:32:43.841Z,99.99
2022-11-12T06:33:43.756Z,99.99
2022-11-12T06:34:43.672Z,99.99
2022-11-12T06:35:43.587Z,99.99
2022-11-12T06:36:43.501Z,99.99
2022-11-12T06:37:43.416Z,99.99
2022-11-12T06:38:43.330Z,99.99
2022-11-12T06:39:43.356Z,99.99
2022-11-12T06:40:43.162Z,99.99
2022-11-12T06:41:43.084Z,99.99
2022-11-12T06:42:42.992Z,99.99
2022-11-12T06:43:42.910Z,99.99
2022-11-12T06:44:42.827Z,99.99
2022-11-12T06:45:42.738Z,99.99
2022-11-12T06:46:42.652Z,99.99
2022-11-12T06:47:42.569Z,99.99
2022-11-12T06:48:42.490Z,99.99
2022-11-12T06:49:42.401Z,99.99
2022-11-12T06:50:42.310Z,99.99
2022-11-12T06:51:42.228Z,99.99
2022-11-12T06:52:42.145Z,99.99
2022-11-12T06:53:42.063Z,99.99
2022-11-12T06:54:41.976Z,99.99
2022-11-12T06:55:41.992Z,99.99
2022-11-12T06:56:41.802Z,99.99
2022-11-12T06:57:41.726Z,99.99
2022-11-12T06:58:41.636Z,99.99
2022-11-12T06:59:41.552Z,99.99
2022-11-12T07:00:41.465Z,99.99
2022-11-12T07:01:41.420Z,99.99
2022-11-12T07:02:41.295Z,99.99
2022-11-12T07:03:41.211Z,99.99
2022-11-12T07:04:41.145Z,99.99
2022-11-12T07:05:41.043Z,99.99
2022-11-12T07:06:41.041Z,99.99
2022-11-12T07:07:40.869Z,99.99
2022-11-12T07:08:40.786Z,99.99
2022-11-12T07:09:40.708Z,99.99
2022-11-12T07:10:40.623Z,99.99
2022-11-12T07:11:40.630Z,99.99
2022-11-12T07:12:40.449Z,99.99
2022-11-12T07:13:40.367Z,99.99
2022-11-12T07:14:40.278Z,99.99
2022-11-12T07:15:40.192Z,99.99
2022-11-12T07:16:40.109Z,99.99
2022-11-12T07:17:40.032Z,99.99
2022-11-12T07:18:39.940Z,99.99
2022-11-12T07:19:39.887Z,99.99
2022-11-12T07:20:39.773Z,99.99
2022-11-12T07:21:39.684Z,99.99
2022-11-12T07:22:39.606Z,99.99
2022-11-12T07:23:39.519Z,99.99
2022-11-12T07:24:39.431Z,99.99
2022-11-12T07:25:39.346Z,99.99
2022-11-12T07:26:43.190Z,99.99
2022-11-12T07:27:39.277Z,99.99
2022-11-12T07:28:39.092Z,99.99
2022-11-12T07:29:47.488Z,99.99
2022-11-12T07:30:38.920Z,99.99
2022-11-12T07:31:38.840Z,99.99
2022-11-12T07:32:44.204Z,99.99
2022-11-12T07:33:38.672Z,99.99
2022-11-12T07:34:38.584Z,99.99
2022-11-12T07:35:38.505Z,99.99
2022-11-12T07:36:38.415Z,99.99
2022-11-12T07:37:38.337Z,99.99
2022-11-12T07:38:38.251Z,99.99
2022-11-12T07:39:38.167Z,99.99
2022-11-12T07:40:38.076Z,99.99
2022-11-12T07:41:37.992Z,99.99
2022-11-12T07:42:37.907Z,99.99
2022-11-12T07:43:37.926Z,99.99
2022-11-12T07:44:37.742Z,99.99
2022-11-12T07:45:37.658Z,99.99
2022-11-12T07:46:37.571Z,99.99
2022-11-12T07:47:37.487Z,99.99
2022-11-12T07:48:37.405Z,99.99
2022-11-12T07:49:37.324Z,99.99
2022-11-12T07:50:37.238Z,99.99
2022-11-12T07:51:37.152Z,99.99
2022-11-12T07:52:37.071Z,99.99
2022-11-12T07:53:37.005Z,99.99
2022-11-12T07:54:36.897Z,99.99
2022-11-12T07:55:36.817Z,99.99
2022-11-12T07:56:36.731Z,99.99
2022-11-12T07:57:36.668Z,99.99
2022-11-12T07:58:36.563Z,99.99
2022-11-12T07:59:39.498Z,99.99
2022-11-12T08:00:36.401Z,99.99
2022-11-12T08:01:36.376Z,99.99
2022-11-12T08:02:36.229Z,99.99
2022-11-12T08:03:36.148Z,99.99
2022-11-12T08:04:36.060Z,99.99
2022-11-12T08:05:35.976Z,99.99
2022-11-12T08:06:36.052Z,99.99
2022-11-12T08:07:35.917Z,99.99
2022-11-12T08:08:35.724Z,99.99
2022-11-12T08:09:35.646Z,99.99
2022-11-12T08:10:35.557Z,99.99
2022-11-12T08:11:35.476Z,99.99
2022-11-12T08:12:35.393Z,99.99
2022-11-12T08:13:35.312Z,99.99
2022-11-12T08:14:35.228Z,99.99
2022-11-12T08:15:35.241Z,99.99
2022-11-12T08:16:35.060Z,99.99
2022-11-12T08:17:34.981Z,99.99
2022-11-12T08:18:34.891Z,99.99
2022-11-12T08:19:34.816Z,99.99
2022-11-12T08:20:34.725Z,99.99
2022-11-12T08:21:34.645Z,99.99
2022-11-12T08:22:34.561Z,99.99
2022-11-12T08:23:34.483Z,99.99
2022-11-12T08:24:34.391Z,99.99
2022-11-12T08:25:34.313Z,99.99
2022-11-12T08:26:34.233Z,99.99
2022-11-12T08:27:34.144Z,99.99
2022-11-12T08:28:34.064Z,99.99
2022-11-12T08:29:33.983Z,99.99
2022-11-12T08:30:33.898Z,99.99
2022-11-12T08:31:33.908Z,99.99
2022-11-12T08:32:33.732Z,99.69
2022-11-12T08:33:33.649Z,99.50
2022-11-12T08:34:33.566Z,99.84
2022-11-12T08:35:33.482Z,99.74
2022-11-12T08:36:33.400Z,99.99
2022-11-12T08:37:33.318Z,99.64
2022-11-12T08:38:33.236Z,99.99
2022-11-12T08:39:33.157Z,99.99
2022-11-12T08:40:33.070Z,99.99
2022-11-12T08:41:32.987Z,99.07
2022-11-12T08:42:32.903Z,99.36
2022-11-12T08:43:32.824Z,99.45
2022-11-12T08:44:32.739Z,99.07
2022-11-12T08:45:32.658Z,99.99
2022-11-12T08:46:32.580Z,99.93
2022-11-12T08:47:32.589Z,99.99
2022-11-12T08:48:32.410Z,99.74
2022-11-12T08:49:32.328Z,99.99
2022-11-12T08:50:32.247Z,99.99
2022-11-12T08:51:32.163Z,99.99
2022-11-12T08:52:32.083Z,99.99
2022-11-12T08:53:32.004Z,99.99
2022-11-12T08:54:31.915Z,99.99
2022-11-12T08:55:31.839Z,99.99
2022-11-12T08:56:31.753Z,99.12
2022-11-12T08:57:31.676Z,99.31
2022-11-12T08:58:31.591Z,99.69
2022-11-12T08:59:31.506Z,99.99
2022-11-12T09:00:31.424Z,99.99
2022-11-12T09:01:31.366Z,98.74
2022-11-12T09:02:31.262Z,99.41
2022-11-12T09:03:31.270Z,99.31
2022-11-12T09:04:31.099Z,98.74
2022-11-12T09:05:31.014Z,98.65
2022-11-12T09:06:30.935Z,99.31
2022-11-12T09:07:56.390Z,99.65
2022-11-12T09:08:30.935Z,99.46
2022-11-12T09:09:30.693Z,99.08
2022-11-12T09:10:30.609Z,98.88
2022-11-12T09:11:30.527Z,98.79
2022-11-12T09:12:30.452Z,99.17
2022-11-12T09:13:30.490Z,98.60
2022-11-12T09:14:30.289Z,99.65
2022-11-12T09:15:37.564Z,99.55
2022-11-12T09:16:30.124Z,98.32
2022-11-12T09:17:30.039Z,98.50
2022-11-12T09:18:30.170Z,98.03
2022-11-12T09:19:29.970Z,98.41
2022-11-12T09:20:29.796Z,98.13
2022-11-12T09:21:29.711Z,97.27
2022-11-12T09:22:29.637Z,98.22
2022-11-12T09:23:29.549Z,98.50
2022-11-12T09:24:29.470Z,98.69
2022-11-12T09:25:29.389Z,99.55
2022-11-12T09:26:29.310Z,99.08
2022-11-12T09:27:29.225Z,98.98
2022-11-12T09:28:29.309Z,98.32
2022-11-12T09:29:29.066Z,98.18
2022-11-12T09:30:28.988Z,98.32
2022-11-12T09:31:28.902Z,97.17
2022-11-12T09:32:28.821Z,96.89
2022-11-12T09:33:28.742Z,98.50
2022-11-12T09:34:28.664Z,98.69
2022-11-12T09:35:28.673Z,98.69
2022-11-12T09:36:28.496Z,99.22
2022-11-12T09:37:28.422Z,98.22
2022-11-12T09:38:28.644Z,97.51
2022-11-12T09:39:28.251Z,98.46
2022-11-12T09:40:28.175Z,98.36
2022-11-12T09:41:28.090Z,97.70
2022-11-12T09:42:28.010Z,98.27
2022-11-12T09:43:27.935Z,99.22
2022-11-12T09:44:30.646Z,98.18
2022-11-12T09:45:27.769Z,98.55
2022-11-12T09:46:28.507Z,98.55
2022-11-12T09:47:27.610Z,99.13
2022-11-12T09:48:27.870Z,98.99
2022-11-12T09:49:27.444Z,97.94
2022-11-12T09:50:27.372Z,97.65
2022-11-12T09:51:27.383Z,97.56
2022-11-12T09:52:27.208Z,97.75
2022-11-12T09:53:27.124Z,96.89
2022-11-12T09:54:27.046Z,96.80
2022-11-12T09:55:26.966Z,97.36
2022-11-12T09:56:26.889Z,96.60
2022-11-12T09:57:26.804Z,97.08
2022-11-12T09:58:26.997Z,96.65
2022-11-12T09:59:26.643Z,96.17
2022-11-12T10:00:26.566Z,96.27
2022-11-12T10:01:26.508Z,95.70
2022-11-12T10:02:26.402Z,96.36
2022-11-12T10:03:26.322Z,96.70
2022-11-12T10:04:26.245Z,96.22
2022-11-12T10:05:26.169Z,95.94
2022-11-12T10:06:26.085Z,96.22
2022-11-12T10:07:26.111Z,96.80
2022-11-12T10:08:26.279Z,96.98
2022-11-12T10:09:25.845Z,96.98
2022-11-12T10:10:25.769Z,97.08
2022-11-12T10:11:25.683Z,97.36
2022-11-12T10:12:25.610Z,98.41
2022-11-12T10:13:25.528Z,98.79
2022-11-12T10:14:25.450Z,98.60
2022-11-12T10:15:25.364Z,98.13
2022-11-12T10:16:25.289Z,97.84
2022-11-12T10:17:25.210Z,98.79
2022-11-12T10:18:25.582Z,97.84
2022-11-12T10:19:25.050Z,97.65
2022-11-12T10:20:24.968Z,98.74
2022-11-12T10:21:24.889Z,98.32
2022-11-12T10:22:24.808Z,98.46
2022-11-12T10:23:24.830Z,98.79
2022-11-12T10:24:24.649Z,98.89
2022-11-12T10:25:24.571Z,98.89
2022-11-12T10:26:24.494Z,98.70
2022-11-12T10:27:24.405Z,98.79
2022-11-12T10:28:24.650Z,98.99
2022-11-12T10:29:24.245Z,99.27
2022-11-12T10:30:24.166Z,98.22
2022-11-12T10:31:24.093Z,98.13
2022-11-12T10:32:24.010Z,97.75
2022-11-12T10:33:23.928Z,97.08
2022-11-12T10:34:23.851Z,98.51
2022-11-12T10:35:23.775Z,97.56
2022-11-12T10:36:23.693Z,98.13
2022-11-12T10:37:23.606Z,98.03
2022-11-12T10:38:23.725Z,98.60
2022-11-12T10:39:23.547Z,97.75
2022-11-12T10:40:23.371Z,98.03
2022-11-12T10:41:23.291Z,98.70
2022-11-12T10:42:23.213Z,98.51
2022-11-12T10:43:23.126Z,98.70
2022-11-12T10:44:23.046Z,98.60
2022-11-12T10:45:22.975Z,98.41
2022-11-12T10:46:22.894Z,99.08
2022-11-12T10:47:22.807Z,99.75
2022-11-12T10:48:27.011Z,98.79
2022-11-12T10:49:22.652Z,98.99
2022-11-12T10:50:22.569Z,98.70
2022-11-12T10:51:22.486Z,98.51
2022-11-12T10:52:22.415Z,98.60
2022-11-12T10:53:22.333Z,98.70
2022-11-12T10:54:22.253Z,98.79
2022-11-12T10:55:22.260Z,98.60
2022-11-12T10:56:22.088Z,99.55
2022-11-12T10:57:22.008Z,98.89
2022-11-12T10:58:21.931Z,98.70
2022-11-12T10:59:21.853Z,98.75
2022-11-12T11:00:21.769Z,99.22
2022-11-12T11:01:21.722Z,99.32
2022-11-12T11:02:21.629Z,98.65
2022-11-12T11:03:21.531Z,99.89
2022-11-12T11:04:21.451Z,98.56
2022-11-12T11:05:21.369Z,98.85
2022-11-12T11:06:21.290Z,98.75
2022-11-12T11:07:21.257Z,98.36
2022-11-12T11:08:21.131Z,98.56
2022-11-12T11:09:21.054Z,98.27
2022-11-12T11:10:20.972Z,98.36
2022-11-12T11:11:20.985Z,99.41
2022-11-12T11:12:20.817Z,98.75
2022-11-12T11:13:20.742Z,99.70
2022-11-12T11:14:20.651Z,98.56
2022-11-12T11:15:20.574Z,98.85
2022-11-12T11:16:20.492Z,98.75
2022-11-12T11:17:20.410Z,99.13
2022-11-12T11:18:20.335Z,99.04
2022-11-12T11:19:20.251Z,98.75
2022-11-12T11:20:20.172Z,98.85
2022-11-12T11:21:20.094Z,99.04
2022-11-12T11:22:20.011Z,98.75
2022-11-12T11:23:19.936Z,98.80
2022-11-12T11:24:19.857Z,98.99
2022-11-12T11:25:19.775Z,99.18
2022-11-12T11:26:19.695Z,99.37
2022-11-12T11:27:19.709Z,99.18
2022-11-12T11:28:19.536Z,99.37
2022-11-12T11:29:19.458Z,98.99
2022-11-12T11:30:19.378Z,98.51
2022-11-12T11:31:19.298Z,98.51
2022-11-12T11:32:19.214Z,98.61
2022-11-12T11:33:19.136Z,98.61
2022-11-12T11:34:19.061Z,97.94
2022-11-12T11:35:18.983Z,97.46
2022-11-12T11:36:18.899Z,97.75
2022-11-12T11:37:18.820Z,97.66
2022-11-12T11:38:18.737Z,96.80
2022-11-12T11:39:18.654Z,97.46
2022-11-12T11:40:18.581Z,98.13
2022-11-12T11:41:18.501Z,97.94
2022-11-12T11:42:18.420Z,98.22
2022-11-12T11:43:18.435Z,98.42
2022-11-12T11:44:18.441Z,99.08
2022-11-12T11:45:18.184Z,99.56
2022-11-12T11:46:18.103Z,99.27
2022-11-12T11:47:18.018Z,98.03
2022-11-12T11:48:17.944Z,97.94
2022-11-12T11:49:17.860Z,96.89
2022-11-12T11:50:17.790Z,97.46
2022-11-12T11:51:22.115Z,97.66
2022-11-12T11:52:17.627Z,98.51
2022-11-12T11:53:17.545Z,98.51
2022-11-12T11:54:17.463Z,99.85
2022-11-12T11:55:17.390Z,99.66
2022-11-12T11:56:17.313Z,98.80
2022-11-12T11:57:17.231Z,98.08
2022-11-12T11:58:17.146Z,97.66
2022-11-12T11:59:17.168Z,98.08
2022-11-12T12:00:16.986Z,97.89
2022-11-12T12:01:16.912Z,97.94
2022-11-12T12:02:16.829Z,98.13
2022-11-12T12:03:16.804Z,97.61
2022-11-12T12:04:16.670Z,97.13
2022-11-12T12:05:16.590Z,98.08
2022-11-12T12:06:16.518Z,98.08
2022-11-12T12:07:16.484Z,97.71
2022-11-12T12:08:16.354Z,97.42
2022-11-12T12:09:16.275Z,96.37
2022-11-12T12:10:16.200Z,96.84
2022-11-12T12:11:16.116Z,96.46
2022-11-12T12:12:16.032Z,96.66
2022-11-12T12:13:15.959Z,96.66
2022-11-12T12:14:15.877Z,96.46
2022-11-12T12:15:15.894Z,96.66
2022-11-12T12:16:15.720Z,96.84
2022-11-12T12:17:15.643Z,96.56
2022-11-12T12:18:15.561Z,96.56
2022-11-12T12:19:15.479Z,96.46
2022-11-12T12:20:15.402Z,95.89
2022-11-12T12:21:15.321Z,95.22
2022-11-12T12:22:15.243Z,95.51
2022-11-12T12:23:15.165Z,96.08
2022-11-12T12:24:15.081Z,96.75
2022-11-12T12:25:15.003Z,96.94
2022-11-12T12:26:14.921Z,96.66
2022-11-12T12:27:14.845Z,96.27
2022-11-12T12:28:14.770Z,96.17
2022-11-12T12:29:14.692Z,96.75
2022-11-12T12:30:14.609Z,97.51
2022-11-12T12:31:14.626Z,97.99
2022-11-12T12:32:14.467Z,97.51
2022-11-12T12:33:14.373Z,97.61
2022-11-12T12:34:14.292Z,97.71
2022-11-12T12:35:14.214Z,97.66
2022-11-12T12:36:14.130Z,96.89
2022-11-12T12:37:14.057Z,96.84
2022-11-12T12:38:13.972Z,96.98
2022-11-12T12:39:13.897Z,97.51
2022-11-12T12:40:13.813Z,97.32
2022-11-12T12:41:13.736Z,97.89
2022-11-12T12:42:13.658Z,97.71
2022-11-12T12:43:13.580Z,97.99
2022-11-12T12:44:13.498Z,98.08
2022-11-12T12:45:13.419Z,98.08
2022-11-12T12:46:13.339Z,97.89
2022-11-12T12:47:13.356Z,96.94
2022-11-12T12:48:13.183Z,96.75
2022-11-12T12:49:13.104Z,97.03
2022-11-12T12:50:13.027Z,97.71
2022-11-12T12:51:12.948Z,97.51